createdAt,value
2018-01-10T00:00:49.589Z,0.00
2018-01-10T00:01:51.537Z,0.00
2018-01-10T00:02:51.015Z,0.00
2018-01-10T00:03:49.848Z,0.00
2018-01-10T00:04:51.303Z,0.00
2018-01-10T00:05:50.639Z,0.00
2018-01-10T00:06:50.928Z,0.00
2018-01-10T00:07:50.550Z,0.00
2018-01-10T00:08:50.077Z,0.00
2018-01-10T00:10:11.251Z,0.00
2018-01-10T00:11:33.159Z,0.00
2018-01-10T00:12:34.911Z,0.00
2018-01-10T00:13:33.820Z,0.00
2018-01-10T00:14:33.633Z,0.00
2018-01-10T00:15:33.693Z,0.00
2018-01-10T00:16:34.157Z,0.00
2018-01-10T00:17:33.603Z,0.00
2018-01-10T00:18:33.558Z,0.00
2018-01-10T00:19:33.158Z,0.00
2018-01-10T00:20:34.330Z,0.00
2018-01-10T00:21:33.976Z,0.00
2018-01-10T00:22:33.652Z,0.00
2018-01-10T00:23:33.772Z,0.00
2018-01-10T00:24:33.505Z,0.00
2018-01-10T00:25:33.306Z,0.00
2018-01-10T00:26:34.406Z,0.00
2018-01-10T00:27:34.163Z,0.00
2018-01-10T00:28:33.962Z,0.00
2018-01-10T00:29:33.376Z,0.00
2018-01-10T00:30:33.611Z,0.00
2018-01-10T00:31:32.908Z,0.00
2018-01-10T00:32:33.976Z,0.00
2018-01-10T00:33:33.802Z,0.00
2018-01-10T00:34:33.511Z,0.00
2018-01-10T00:35:32.876Z,0.00
2018-01-10T00:36:33.258Z,0.00
2018-01-10T00:37:33.921Z,0.00
2018-01-10T00:38:33.079Z,0.00
2018-01-10T00:39:33.836Z,0.00
2018-01-10T00:40:33.642Z,0.00
2018-01-10T00:41:33.216Z,0.00
2018-01-10T00:42:33.494Z,0.00
2018-01-10T00:43:33.272Z,0.00
2018-01-10T00:44:33.795Z,0.00
2018-01-10T00:45:33.682Z,0.00
2018-01-10T00:46:32.875Z,0.00
2018-01-10T00:47:33.351Z,0.00
2018-01-10T00:48:33.838Z,0.00
2018-01-10T00:49:33.110Z,0.00
2018-01-10T00:50:33.590Z,0.00
2018-01-10T00:51:33.339Z,0.00
2018-01-10T00:52:33.707Z,0.00
2018-01-10T00:53:33.257Z,0.00
2018-01-10T00:54:33.671Z,0.00
2018-01-10T00:55:32.888Z,0.00
2018-01-10T00:56:33.564Z,0.00
2018-01-10T00:57:33.200Z,0.00
2018-01-10T00:58:33.460Z,0.00
2018-01-10T00:59:33.799Z,0.00
2018-01-10T01:00:33.028Z,0.00
2018-01-10T01:01:34.230Z,0.00
2018-01-10T01:02:33.933Z,0.00
2018-01-10T01:03:34.388Z,0.00
2018-01-10T01:04:34.073Z,0.00
2018-01-10T01:05:33.376Z,0.00
2018-01-10T01:06:33.712Z,0.00
2018-01-10T01:07:33.309Z,0.00
2018-01-10T01:08:34.162Z,0.00
2018-01-10T01:09:34.110Z,0.00
2018-01-10T01:10:33.936Z,0.00
2018-01-10T01:11:33.430Z,0.00
2018-01-10T01:12:33.369Z,0.00
2018-01-10T01:13:34.773Z,0.00
2018-01-10T01:14:33.394Z,0.00
2018-01-10T01:15:34.180Z,0.00
2018-01-10T01:16:34.407Z,0.00
2018-01-10T01:17:34.265Z,0.00
2018-01-10T01:18:33.878Z,0.00
2018-01-10T01:19:34.295Z,0.00
2018-01-10T01:20:33.831Z,0.00
2018-01-10T01:21:33.417Z,0.00
2018-01-10T01:22:33.707Z,0.00
2018-01-10T01:23:33.634Z,0.00
2018-01-10T01:24:33.213Z,0.00
2018-01-10T01:25:33.573Z,0.00
2018-01-10T01:26:33.394Z,0.00
2018-01-10T01:27:33.773Z,0.00
2018-01-10T01:28:33.584Z,0.00
2018-01-10T01:29:33.353Z,0.00
2018-01-10T01:30:34.104Z,0.00
2018-01-10T01:31:33.871Z,0.00
2018-01-10T01:32:33.751Z,0.00
2018-01-10T01:33:33.392Z,0.00
2018-01-10T01:34:33.649Z,0.00
2018-01-10T01:35:32.964Z,0.00
2018-01-10T01:36:33.251Z,0.00
2018-01-10T01:37:33.793Z,0.00
2018-01-10T01:38:33.418Z,0.00
2018-01-10T01:39:32.899Z,0.00
2018-01-10T01:40:33.602Z,0.00
2018-01-10T01:41:33.309Z,0.00
2018-01-10T01:42:33.905Z,0.00
2018-01-10T01:43:33.345Z,0.00
2018-01-10T01:44:33.923Z,0.00
2018-01-10T01:45:33.147Z,0.00
2018-01-10T01:46:57.356Z,0.00
2018-01-10T01:47:57.915Z,0.00
2018-01-10T01:48:57.277Z,0.00
2018-01-10T01:49:57.443Z,0.00
2018-01-10T01:50:57.731Z,0.00
2018-01-10T01:51:58.169Z,0.00
2018-01-10T01:52:57.670Z,0.00
2018-01-10T01:53:57.445Z,0.00
2018-01-10T01:54:57.761Z,0.00
2018-01-10T01:55:57.547Z,0.00
2018-01-10T01:56:58.204Z,0.00
2018-01-10T01:57:58.185Z,0.00
2018-01-10T01:58:57.394Z,0.00
2018-01-10T01:59:57.909Z,0.00
2018-01-10T02:00:57.274Z,0.00
2018-01-10T02:01:57.860Z,0.00
2018-01-10T02:02:56.858Z,0.00
2018-01-10T02:03:57.235Z,0.00
2018-01-10T02:04:57.566Z,0.00
2018-01-10T02:05:57.292Z,0.00
2018-01-10T02:06:57.884Z,0.00
2018-01-10T02:07:57.176Z,0.00
2018-01-10T02:08:57.808Z,0.00
2018-01-10T02:09:57.525Z,0.00
2018-01-10T02:10:57.682Z,0.00
2018-01-10T02:11:57.634Z,0.00
2018-01-10T02:12:58.342Z,0.00
2018-01-10T02:13:57.832Z,0.00
2018-01-10T02:14:57.503Z,0.00
2018-01-10T02:15:57.782Z,0.00
2018-01-10T02:17:18.884Z,0.00
2018-01-10T02:18:19.199Z,0.00
2018-01-10T02:19:18.385Z,0.00
2018-01-10T02:20:19.571Z,0.00
2018-01-10T02:21:18.807Z,0.00
2018-01-10T02:22:18.885Z,0.00
2018-01-10T02:23:19.449Z,0.00
2018-01-10T02:24:18.549Z,0.00
2018-01-10T02:25:18.924Z,0.00
2018-01-10T02:26:19.374Z,0.00
2018-01-10T02:27:18.671Z,0.00
2018-01-10T02:28:40.510Z,0.00
2018-01-10T02:29:40.564Z,0.00
2018-01-10T02:30:40.734Z,0.00
2018-01-10T02:32:02.149Z,0.00
2018-01-10T02:33:02.934Z,0.00
2018-01-10T02:34:02.302Z,0.00
2018-01-10T02:35:02.872Z,0.00
2018-01-10T02:36:04.632Z,0.00
2018-01-10T02:37:02.867Z,0.00
2018-01-10T02:38:02.144Z,0.00
2018-01-10T02:39:02.390Z,0.00
2018-01-10T02:40:03.078Z,0.00
2018-01-10T02:41:02.857Z,0.00
2018-01-10T02:42:02.207Z,0.00
2018-01-10T02:43:02.553Z,0.00
2018-01-10T02:44:02.809Z,0.00
2018-01-10T02:45:03.035Z,0.00
2018-01-10T02:46:02.486Z,0.00
2018-01-10T02:47:03.165Z,0.00
2018-01-10T02:48:02.669Z,0.00
2018-01-10T02:49:02.916Z,0.00
2018-01-10T02:50:02.156Z,0.00
2018-01-10T02:51:02.532Z,0.00
2018-01-10T02:52:02.964Z,0.00
2018-01-10T02:53:02.282Z,0.00
2018-01-10T02:54:02.860Z,0.00
2018-01-10T02:55:02.471Z,0.00
2018-01-10T02:56:02.824Z,0.00
2018-01-10T02:57:01.991Z,0.00
2018-01-10T02:58:02.588Z,0.00
2018-01-10T02:59:02.844Z,0.00
2018-01-10T03:00:02.564Z,0.00
2018-01-10T03:01:03.277Z,0.00
2018-01-10T03:02:02.452Z,0.00
2018-01-10T03:03:02.479Z,0.00
2018-01-10T03:04:02.830Z,0.00
2018-01-10T03:05:02.257Z,0.00
2018-01-10T03:06:02.661Z,0.00
2018-01-10T03:07:02.840Z,0.00
2018-01-10T03:08:02.252Z,0.00
2018-01-10T03:09:02.530Z,0.00
2018-01-10T03:10:02.997Z,0.00
2018-01-10T03:11:03.108Z,0.00
2018-01-10T03:12:02.640Z,0.00
2018-01-10T03:13:03.199Z,0.00
2018-01-10T03:14:02.741Z,0.00
2018-01-10T03:15:02.463Z,0.00
2018-01-10T03:16:25.509Z,0.00
2018-01-10T03:17:25.604Z,0.00
2018-01-10T03:18:25.793Z,0.00
2018-01-10T03:19:26.201Z,0.00
2018-01-10T03:20:28.647Z,0.00
2018-01-10T03:21:25.776Z,0.00
2018-01-10T03:22:26.149Z,0.00
2018-01-10T03:23:26.837Z,0.00
2018-01-10T03:24:26.173Z,0.00
2018-01-10T03:25:26.435Z,0.00
2018-01-10T03:26:26.036Z,0.00
2018-01-10T03:27:26.667Z,0.00
2018-01-10T03:28:26.423Z,0.00
2018-01-10T03:29:26.867Z,0.00
2018-01-10T03:30:26.469Z,0.00
2018-01-10T03:31:25.725Z,0.00
2018-01-10T03:32:26.235Z,0.00
2018-01-10T03:33:26.510Z,0.00
2018-01-10T03:34:26.275Z,0.00
2018-01-10T03:35:26.835Z,0.00
2018-01-10T03:36:25.864Z,0.00
2018-01-10T03:37:26.496Z,0.00
2018-01-10T03:38:25.631Z,0.00
2018-01-10T03:39:25.942Z,0.00
2018-01-10T03:40:26.352Z,0.00
2018-01-10T03:41:26.127Z,0.00
2018-01-10T03:42:26.788Z,0.00
2018-01-10T03:43:26.460Z,0.00
2018-01-10T03:44:26.019Z,0.00
2018-01-10T03:45:26.605Z,0.00
2018-01-10T03:46:26.399Z,0.00
2018-01-10T03:47:26.128Z,0.00
2018-01-10T03:48:26.899Z,0.00
2018-01-10T03:49:26.477Z,0.00
2018-01-10T03:50:25.739Z,0.00
2018-01-10T03:51:26.058Z,0.00
2018-01-10T03:52:26.297Z,0.00
2018-01-10T03:53:26.814Z,0.00
2018-01-10T03:54:26.489Z,0.00
2018-01-10T03:55:26.066Z,0.00
2018-01-10T03:56:26.891Z,0.00
2018-01-10T03:57:26.459Z,0.00
2018-01-10T03:58:26.939Z,0.00
2018-01-10T03:59:26.067Z,0.00
2018-01-10T04:00:26.825Z,0.00
2018-01-10T04:01:26.164Z,0.00
2018-01-10T04:02:26.433Z,0.00
2018-01-10T04:03:25.790Z,0.00
2018-01-10T04:04:26.415Z,0.00
2018-01-10T04:05:26.690Z,0.00
2018-01-10T04:06:25.981Z,0.00
2018-01-10T04:07:26.438Z,0.00
2018-01-10T04:08:47.177Z,0.00
2018-01-10T04:09:47.472Z,0.00
2018-01-10T04:10:46.771Z,0.00
2018-01-10T04:11:47.521Z,0.00
2018-01-10T04:12:48.138Z,0.00
2018-01-10T04:13:47.602Z,0.00
2018-01-10T04:14:47.233Z,0.00
2018-01-10T04:15:47.502Z,0.00
2018-01-10T04:16:46.714Z,0.00
2018-01-10T04:17:47.307Z,0.00
2018-01-10T04:18:47.617Z,0.00
2018-01-10T04:19:47.216Z,0.00
2018-01-10T04:20:48.391Z,0.00
2018-01-10T04:21:47.617Z,0.00
2018-01-10T04:22:46.691Z,0.00
2018-01-10T04:23:47.345Z,0.00
2018-01-10T04:24:47.745Z,0.00
2018-01-10T04:25:46.911Z,0.00
2018-01-10T04:26:47.545Z,0.00
2018-01-10T04:28:08.820Z,0.00
2018-01-10T04:29:09.184Z,0.00
2018-01-10T04:30:09.414Z,0.00
2018-01-10T04:31:09.061Z,0.00
2018-01-10T04:32:09.872Z,0.00
2018-01-10T04:33:09.328Z,0.00
2018-01-10T04:34:09.390Z,0.00
2018-01-10T04:35:10.022Z,0.00
2018-01-10T04:36:09.293Z,0.00
2018-01-10T04:37:09.414Z,0.00
2018-01-10T04:38:09.159Z,0.00
2018-01-10T04:39:09.426Z,0.00
2018-01-10T04:40:09.081Z,0.00
2018-01-10T04:41:09.685Z,0.00
2018-01-10T04:42:09.134Z,0.00
2018-01-10T04:43:09.762Z,0.00
2018-01-10T04:44:09.136Z,0.00
2018-01-10T04:45:09.593Z,0.00
2018-01-10T04:46:08.738Z,0.00
2018-01-10T04:47:09.449Z,0.00
2018-01-10T04:48:09.122Z,0.00
2018-01-10T04:49:09.876Z,0.00
2018-01-10T04:50:09.339Z,0.00
2018-01-10T04:51:09.092Z,0.00
2018-01-10T04:52:09.249Z,0.00
2018-01-10T04:53:09.820Z,0.00
2018-01-10T04:54:09.329Z,0.00
2018-01-10T04:55:10.249Z,0.00
2018-01-10T04:56:09.849Z,0.00
2018-01-10T04:57:09.454Z,0.00
2018-01-10T04:58:08.712Z,0.00
2018-01-10T04:59:09.756Z,0.00
2018-01-10T05:00:09.200Z,0.00
2018-01-10T05:01:09.570Z,0.00
2018-01-10T05:02:09.139Z,0.00
2018-01-10T05:03:09.349Z,0.00
2018-01-10T05:04:09.614Z,0.00
2018-01-10T05:05:09.643Z,0.00
2018-01-10T05:06:08.781Z,0.00
2018-01-10T05:07:09.249Z,0.00
2018-01-10T05:08:09.405Z,0.00
2018-01-10T05:09:09.639Z,0.00
2018-01-10T05:10:10.287Z,0.00
2018-01-10T05:11:09.476Z,0.00
2018-01-10T05:12:09.035Z,0.00
2018-01-10T05:13:09.222Z,0.00
2018-01-10T05:14:10.944Z,0.00
2018-01-10T05:15:10.864Z,0.00
2018-01-10T05:16:13.038Z,0.00
2018-01-10T05:17:09.981Z,0.00
2018-01-10T05:18:09.781Z,0.00
2018-01-10T05:19:11.016Z,0.00
2018-01-10T05:20:09.360Z,0.00
2018-01-10T05:21:09.741Z,0.00
2018-01-10T05:22:09.412Z,0.00
2018-01-10T05:23:08.782Z,0.00
2018-01-10T05:24:09.840Z,0.00
2018-01-10T05:25:09.178Z,0.00
2018-01-10T05:26:09.819Z,0.00
2018-01-10T05:27:09.514Z,0.00
2018-01-10T05:28:09.332Z,0.00
2018-01-10T05:29:10.000Z,0.00
2018-01-10T05:30:09.474Z,0.00
2018-01-10T05:31:08.815Z,0.00
2018-01-10T05:32:09.103Z,0.00
2018-01-10T05:33:09.725Z,0.00
2018-01-10T05:34:10.269Z,0.00
2018-01-10T05:35:32.798Z,0.00
2018-01-10T05:36:33.218Z,0.00
2018-01-10T05:37:33.903Z,0.00
2018-01-10T05:38:54.774Z,0.00
2018-01-10T05:39:55.426Z,0.00
2018-01-10T05:40:54.857Z,0.00
2018-01-10T05:41:55.098Z,0.00
2018-01-10T05:42:54.524Z,0.00
2018-01-10T05:43:54.850Z,0.00
2018-01-10T05:44:55.286Z,0.00
2018-01-10T05:45:54.621Z,0.00
2018-01-10T05:46:55.087Z,0.00
2018-01-10T05:47:54.388Z,0.00
2018-01-10T05:48:54.632Z,0.00
2018-01-10T05:49:55.231Z,0.00
2018-01-10T05:50:54.547Z,0.00
2018-01-10T05:51:55.345Z,0.00
2018-01-10T05:52:56.113Z,0.00
2018-01-10T05:53:55.304Z,0.00
2018-01-10T05:54:54.412Z,0.00
2018-01-10T05:55:54.957Z,0.00
2018-01-10T05:56:55.301Z,0.00
2018-01-10T05:57:54.505Z,0.00
2018-01-10T05:58:55.086Z,0.00
2018-01-10T05:59:54.628Z,0.00
2018-01-10T06:01:15.645Z,0.00
2018-01-10T06:02:15.804Z,0.00
2018-01-10T06:03:16.217Z,0.00
2018-01-10T06:04:17.318Z,0.00
2018-01-10T06:05:16.166Z,0.00
2018-01-10T06:06:16.706Z,0.00
2018-01-10T06:07:16.320Z,0.00
2018-01-10T06:08:17.050Z,0.00
2018-01-10T06:09:16.465Z,0.00
2018-01-10T06:10:15.783Z,0.00
2018-01-10T06:11:38.003Z,0.00
2018-01-10T06:12:37.743Z,0.00
2018-01-10T06:13:38.215Z,0.00
2018-01-10T06:14:37.647Z,0.00
2018-01-10T06:15:38.525Z,0.00
2018-01-10T06:16:38.384Z,0.00
2018-01-10T06:17:37.663Z,0.00
2018-01-10T06:18:59.301Z,0.00
2018-01-10T06:19:59.805Z,0.00
2018-01-10T06:21:00.336Z,0.00
2018-01-10T06:22:21.172Z,0.00
2018-01-10T06:23:21.944Z,0.00
2018-01-10T06:24:22.460Z,0.00
2018-01-10T06:25:22.169Z,0.00
2018-01-10T06:26:33.972Z,0.00
2018-01-10T06:27:22.054Z,0.00
2018-01-10T06:28:21.301Z,0.00
2018-01-10T06:29:21.662Z,0.00
2018-01-10T06:30:22.596Z,0.00
2018-01-10T06:31:22.856Z,0.00
2018-01-10T06:32:22.151Z,0.00
2018-01-10T06:33:21.664Z,0.00
2018-01-10T06:34:21.875Z,0.00
2018-01-10T06:35:22.214Z,0.00
2018-01-10T06:36:21.794Z,0.00
2018-01-10T06:37:21.989Z,0.00
2018-01-10T06:38:21.585Z,0.00
2018-01-10T06:39:22.200Z,0.00
2018-01-10T06:40:21.751Z,0.00
2018-01-10T06:41:22.090Z,0.00
2018-01-10T06:43:05.641Z,0.00
2018-01-10T06:44:05.995Z,0.00
2018-01-10T06:45:05.877Z,0.00
2018-01-10T06:46:06.179Z,0.00
2018-01-10T06:47:05.503Z,0.00
2018-01-10T06:48:05.973Z,0.00
2018-01-10T06:49:06.537Z,1.00
2018-01-10T06:50:06.696Z,1.00
2018-01-10T06:51:06.905Z,1.00
2018-01-10T06:52:05.795Z,0.00
2018-01-10T06:53:06.693Z,1.00
2018-01-10T06:54:06.502Z,1.00
2018-01-10T06:55:05.849Z,1.00
2018-01-10T06:56:06.574Z,2.00
2018-01-10T06:57:06.152Z,1.00
2018-01-10T06:58:05.895Z,2.00
2018-01-10T06:59:06.885Z,2.00
2018-01-10T07:00:05.676Z,2.00
2018-01-10T07:01:28.135Z,3.00
2018-01-10T07:02:28.385Z,3.00
2018-01-10T07:03:27.830Z,3.00
2018-01-10T07:04:28.334Z,4.00
2018-01-10T07:05:28.037Z,4.00
2018-01-10T07:06:28.917Z,5.00
2018-01-10T07:07:28.171Z,5.00
2018-01-10T07:08:28.262Z,6.00
2018-01-10T07:09:28.475Z,7.00
2018-01-10T07:10:27.595Z,7.00
2018-01-10T07:11:27.936Z,8.00
2018-01-10T07:12:28.094Z,10.00
2018-01-10T07:13:28.839Z,11.00
2018-01-10T07:14:28.652Z,14.00
2018-01-10T07:15:27.944Z,16.00
2018-01-10T07:16:28.233Z,20.00
2018-01-10T07:17:28.677Z,24.00
2018-01-10T07:18:28.095Z,29.00
2018-01-10T07:19:28.747Z,36.00
2018-01-10T07:20:49.080Z,46.00
2018-01-10T07:21:49.392Z,53.00
2018-01-10T07:22:50.254Z,63.00
2018-01-10T07:23:50.094Z,71.00
2018-01-10T07:24:50.346Z,78.00
2018-01-10T07:25:50.089Z,87.00
2018-01-10T07:26:49.949Z,93.00
2018-01-10T07:27:49.237Z,99.00
2018-01-10T07:28:49.458Z,104.00
2018-01-10T07:29:50.172Z,109.00
2018-01-10T07:30:49.325Z,111.00
2018-01-10T07:31:50.169Z,114.00
2018-01-10T07:32:50.090Z,117.00
2018-01-10T07:33:50.100Z,123.00
2018-01-10T07:34:49.564Z,133.00
2018-01-10T07:35:50.241Z,145.00
2018-01-10T07:36:49.979Z,157.00
2018-01-10T07:37:49.217Z,171.00
2018-01-10T07:38:50.032Z,187.00
2018-01-10T07:39:49.869Z,205.00
2018-01-10T07:41:11.063Z,233.00
2018-01-10T07:42:11.621Z,259.00
2018-01-10T07:43:10.904Z,289.00
2018-01-10T07:44:11.677Z,323.00
2018-01-10T07:45:10.919Z,358.00
2018-01-10T07:46:11.611Z,395.00
2018-01-10T07:47:10.826Z,431.00
2018-01-10T07:48:11.748Z,467.00
2018-01-10T07:49:11.743Z,498.00
2018-01-10T07:50:36.945Z,543.00
2018-01-10T07:51:37.515Z,580.00
2018-01-10T07:52:37.717Z,629.00
2018-01-10T07:53:58.455Z,712.00
2018-01-10T07:55:00.180Z,786.00
2018-01-10T07:55:58.507Z,870.00
2018-01-10T07:56:58.741Z,964.00
2018-01-10T07:57:59.126Z,1051.00
2018-01-10T07:58:59.492Z,1131.00
2018-01-10T07:59:58.968Z,1196.00
2018-01-10T08:00:59.229Z,1254.00
2018-01-10T08:01:58.737Z,1313.00
2018-01-10T08:02:59.489Z,1368.00
2018-01-10T08:03:59.281Z,1420.00
2018-01-10T08:04:59.372Z,1476.00
2018-01-10T08:05:58.563Z,1549.00
2018-01-10T08:06:59.263Z,1657.00
2018-01-10T08:07:58.568Z,1786.00
2018-01-10T08:08:59.436Z,1892.00
2018-01-10T08:09:59.292Z,1974.00
2018-01-10T08:10:59.615Z,2033.00
2018-01-10T08:12:00.107Z,2075.00
2018-01-10T08:12:59.681Z,2124.00
2018-01-10T08:13:59.566Z,2167.00
2018-01-10T08:14:59.667Z,2211.00
2018-01-10T08:15:59.302Z,2258.00
2018-01-10T08:16:59.253Z,2304.00
2018-01-10T08:17:59.458Z,2351.00
2018-01-10T08:18:59.421Z,2389.00
2018-01-10T08:19:59.162Z,2440.00
2018-01-10T08:20:58.626Z,2488.00
2018-01-10T08:21:58.838Z,2528.00
2018-01-10T08:22:59.266Z,2568.00
2018-01-10T08:23:58.662Z,2628.00
2018-01-10T08:24:59.409Z,2750.00
2018-01-10T08:25:58.711Z,2876.00
2018-01-10T08:26:59.822Z,3005.00
2018-01-10T08:27:59.017Z,3145.00
2018-01-10T08:28:59.725Z,3293.00
2018-01-10T08:29:59.730Z,3433.00
2018-01-10T08:30:59.087Z,3528.00
2018-01-10T08:31:59.652Z,3576.00
2018-01-10T08:32:59.003Z,3590.00
2018-01-10T08:33:59.615Z,3578.00
2018-01-10T08:34:59.173Z,3566.00
2018-01-10T08:35:58.673Z,3570.00
2018-01-10T08:36:59.589Z,3604.00
2018-01-10T08:37:59.281Z,3664.00
2018-01-10T08:39:20.723Z,3775.00
2018-01-10T08:40:21.271Z,3882.00
2018-01-10T08:41:20.477Z,4010.00
2018-01-10T08:42:21.036Z,4149.00
2018-01-10T08:43:20.753Z,4304.00
2018-01-10T08:44:20.953Z,4438.00
2018-01-10T08:45:20.649Z,4600.00
2018-01-10T08:46:21.321Z,4787.00
2018-01-10T08:47:20.827Z,4958.00
2018-01-10T08:48:20.691Z,5120.00
2018-01-10T08:49:21.318Z,5256.00
2018-01-10T08:50:21.434Z,5361.00
2018-01-10T08:51:21.205Z,5432.00
2018-01-10T08:52:20.477Z,5508.00
2018-01-10T08:53:21.399Z,5612.00
2018-01-10T08:54:21.088Z,5723.00
2018-01-10T08:55:20.446Z,5857.00
2018-01-10T08:56:21.135Z,5968.00
2018-01-10T08:57:21.171Z,6044.00
2018-01-10T08:58:21.028Z,6104.00
2018-01-10T08:59:20.425Z,6167.00
2018-01-10T09:00:20.667Z,6227.00
2018-01-10T09:01:21.074Z,6230.00
2018-01-10T09:02:20.924Z,6191.00
2018-01-10T09:03:21.362Z,6166.00
2018-01-10T09:04:21.122Z,6157.00
2018-01-10T09:05:20.715Z,6160.00
2018-01-10T09:06:43.676Z,6085.00
2018-01-10T09:07:44.864Z,6085.00
2018-01-10T09:08:43.502Z,6055.00
2018-01-10T09:09:43.256Z,5883.00
2018-01-10T09:10:42.991Z,5706.00
2018-01-10T09:11:42.290Z,5620.00
2018-01-10T09:12:44.420Z,5655.00
2018-01-10T09:13:44.030Z,5690.00
2018-01-10T09:14:42.769Z,5627.00
2018-01-10T09:15:43.793Z,5665.00
2018-01-10T09:16:46.126Z,5676.00
2018-01-10T09:17:43.964Z,5756.00
2018-01-10T09:18:42.572Z,6005.00
2018-01-10T09:19:43.421Z,6272.00
2018-01-10T09:20:43.154Z,6601.00
2018-01-10T09:22:03.648Z,6922.00
2018-01-10T09:23:03.914Z,7078.00
2018-01-10T09:24:04.612Z,7152.00
2018-01-10T09:25:04.120Z,7275.00
2018-01-10T09:26:25.996Z,7239.00
2018-01-10T09:27:26.501Z,7246.00
2018-01-10T09:28:27.792Z,7232.00
2018-01-10T09:29:26.889Z,7286.00
2018-01-10T09:30:26.343Z,7452.00
2018-01-10T09:31:26.902Z,7541.00
2018-01-10T09:32:27.412Z,7437.00
2018-01-10T09:33:26.037Z,7262.00
2018-01-10T09:34:26.676Z,7221.00
2018-01-10T09:35:26.796Z,7284.00
2018-01-10T09:36:26.631Z,7271.00
2018-01-10T09:37:26.982Z,7227.00
2018-01-10T09:38:26.776Z,7167.00
2018-01-10T09:39:26.860Z,7144.00
2018-01-10T09:40:26.422Z,7162.00
2018-01-10T09:41:26.617Z,7303.00
2018-01-10T09:42:26.185Z,7580.00
2018-01-10T09:43:26.642Z,7853.00
2018-01-10T09:44:25.913Z,8128.00
2018-01-10T09:45:47.802Z,8572.00
2018-01-10T09:46:48.588Z,9038.00
2018-01-10T09:47:48.386Z,9533.00
2018-01-10T09:48:48.230Z,10017.00
2018-01-10T09:49:47.802Z,10501.00
2018-01-10T09:51:09.966Z,10935.00
2018-01-10T09:52:32.244Z,11111.00
2018-01-10T09:53:32.712Z,11084.00
2018-01-10T09:55:16.142Z,11169.00
2018-01-10T09:56:17.343Z,11269.00
2018-01-10T09:57:16.103Z,11057.00
2018-01-10T09:58:17.048Z,10882.00
2018-01-10T09:59:16.883Z,10703.00
2018-01-10T10:00:37.388Z,10447.00
2018-01-10T10:01:39.153Z,10294.00
2018-01-10T10:02:38.940Z,10136.00
2018-01-10T10:03:37.948Z,10123.00
2018-01-10T10:04:38.504Z,10147.00
2018-01-10T10:05:38.772Z,10158.00
2018-01-10T10:06:39.759Z,10183.00
2018-01-10T10:07:38.046Z,10311.00
2018-01-10T10:08:37.978Z,10464.00
2018-01-10T10:09:37.774Z,10851.00
2018-01-10T10:11:01.935Z,11564.00
2018-01-10T10:12:02.970Z,11676.00
2018-01-10T10:13:02.432Z,11818.00
2018-01-10T10:14:02.208Z,11779.00
2018-01-10T10:15:02.923Z,11754.00
2018-01-10T10:16:02.455Z,11656.00
2018-01-10T10:17:02.079Z,11383.00
2018-01-10T10:18:02.791Z,11117.00
2018-01-10T10:19:02.347Z,11003.00
2018-01-10T10:20:02.061Z,11127.00
2018-01-10T10:21:02.879Z,11218.00
2018-01-10T10:22:02.722Z,11517.00
2018-01-10T10:23:02.638Z,12027.00
2018-01-10T10:24:01.987Z,12328.00
2018-01-10T10:25:02.642Z,12441.00
2018-01-10T10:26:02.312Z,12339.00
2018-01-10T10:27:01.722Z,12124.00
2018-01-10T10:28:02.748Z,12275.00
2018-01-10T10:29:02.873Z,12185.00
2018-01-10T10:30:02.681Z,12402.00
2018-01-10T10:31:02.539Z,12068.00
2018-01-10T10:32:02.017Z,11887.00
2018-01-10T10:33:03.605Z,11104.00
2018-01-10T10:34:02.367Z,10037.00
2018-01-10T10:35:01.806Z,9646.00
2018-01-10T10:36:02.796Z,9838.00
2018-01-10T10:37:02.410Z,10594.00
2018-01-10T10:38:02.760Z,11244.00
2018-01-10T10:39:02.488Z,11160.00
2018-01-10T10:40:03.813Z,11250.00
2018-01-10T10:41:02.621Z,11517.00
2018-01-10T10:42:02.636Z,11574.00
2018-01-10T10:43:02.689Z,11396.00
2018-01-10T10:44:02.165Z,11389.00
2018-01-10T10:45:01.948Z,11820.00
2018-01-10T10:46:02.540Z,11534.00
2018-01-10T10:47:02.409Z,11629.00
2018-01-10T10:48:02.431Z,12457.00
2018-01-10T10:49:02.307Z,12321.00
2018-01-10T10:50:01.517Z,12393.00
2018-01-10T10:51:02.054Z,12077.00
2018-01-10T10:52:02.894Z,11028.00
2018-01-10T10:53:02.512Z,10403.00
2018-01-10T10:54:02.363Z,10136.00
2018-01-10T10:55:23.477Z,10743.00
2018-01-10T10:56:25.412Z,10604.00
2018-01-10T10:57:24.061Z,10031.00
2018-01-10T10:58:24.246Z,9526.00
2018-01-10T10:59:24.135Z,9451.00
2018-01-10T11:00:23.457Z,9587.00
2018-01-10T11:01:24.018Z,9734.00
2018-01-10T11:02:24.343Z,9700.00
2018-01-10T11:03:23.571Z,9910.00
2018-01-10T11:04:24.401Z,10273.00
2018-01-10T11:05:24.054Z,10376.00
2018-01-10T11:06:24.152Z,10449.00
2018-01-10T11:07:23.982Z,10472.00
2018-01-10T11:08:44.963Z,10482.00
2018-01-10T11:09:45.777Z,10303.00
2018-01-10T11:10:45.560Z,9821.00
2018-01-10T11:11:45.176Z,9334.00
2018-01-10T11:12:45.532Z,8939.00
2018-01-10T11:13:45.957Z,8752.00
2018-01-10T11:14:45.474Z,8611.00
2018-01-10T11:16:29.950Z,8128.00
2018-01-10T11:17:29.796Z,7906.00
2018-01-10T11:18:29.358Z,7920.00
2018-01-10T11:19:30.053Z,8240.00
2018-01-10T11:20:29.569Z,8599.00
2018-01-10T11:21:50.245Z,9279.00
2018-01-10T11:22:50.848Z,9708.00
2018-01-10T11:23:50.002Z,10151.00
2018-01-10T11:24:51.100Z,10659.00
2018-01-10T11:25:51.062Z,10590.00
2018-01-10T11:26:50.835Z,10123.00
2018-01-10T11:27:51.394Z,10188.00
2018-01-10T11:28:51.832Z,10837.00
2018-01-10T11:29:50.510Z,11893.00
2018-01-10T11:30:51.357Z,13181.00
2018-01-10T11:31:51.206Z,14018.00
2018-01-10T11:32:50.946Z,14361.00
2018-01-10T11:33:50.350Z,14113.00
2018-01-10T11:34:50.672Z,13567.00
2018-01-10T11:35:51.880Z,13166.00
2018-01-10T11:36:50.472Z,13248.00
2018-01-10T11:37:50.834Z,13369.00
2018-01-10T11:39:34.271Z,12732.00
2018-01-10T11:40:35.094Z,12473.00
2018-01-10T11:41:34.919Z,12568.00
2018-01-10T11:42:34.126Z,12544.00
2018-01-10T11:43:35.088Z,12429.00
2018-01-10T11:44:34.288Z,12222.00
2018-01-10T11:45:35.258Z,12096.00
2018-01-10T11:46:34.582Z,12065.00
2018-01-10T11:47:35.246Z,12094.00
2018-01-10T11:48:34.805Z,11945.00
2018-01-10T11:49:34.588Z,11577.00
2018-01-10T11:50:34.408Z,11422.00
2018-01-10T11:51:35.146Z,11167.00
2018-01-10T11:52:34.548Z,10405.00
2018-01-10T11:53:56.671Z,9426.00
2018-01-10T11:55:19.028Z,10138.00
2018-01-10T11:56:19.427Z,10757.00
2018-01-10T11:57:19.162Z,11828.00
2018-01-10T11:58:19.191Z,13345.00
2018-01-10T11:59:19.153Z,14856.00
2018-01-10T12:00:20.540Z,15399.00
2018-01-10T12:01:19.654Z,15319.00
2018-01-10T12:02:19.591Z,15047.00
2018-01-10T12:03:20.014Z,14291.00
2018-01-10T12:04:41.702Z,14317.00
2018-01-10T12:05:42.620Z,14830.00
2018-01-10T12:06:41.934Z,15197.00
2018-01-10T12:07:42.333Z,15024.00
2018-01-10T12:09:02.747Z,14466.00
2018-01-10T12:10:03.065Z,13034.00
2018-01-10T12:11:03.789Z,11782.00
2018-01-10T12:12:04.485Z,11348.00
2018-01-10T12:13:24.297Z,11756.00
2018-01-10T12:14:24.988Z,12191.00
2018-01-10T12:15:24.882Z,12086.00
2018-01-10T12:16:24.424Z,12023.00
2018-01-10T12:17:25.051Z,12339.00
2018-01-10T12:18:24.472Z,12547.00
2018-01-10T12:19:24.652Z,12633.00
2018-01-10T12:20:25.478Z,12474.00
2018-01-10T12:21:24.928Z,12355.00
2018-01-10T12:22:24.584Z,12111.00
2018-01-10T12:23:25.533Z,11584.00
2018-01-10T12:24:24.998Z,10921.00
2018-01-10T12:25:24.713Z,10231.00
2018-01-10T12:27:08.076Z,9112.00
2018-01-10T12:28:51.002Z,7857.00
2018-01-10T12:29:51.534Z,7588.00
2018-01-10T12:31:35.068Z,7782.00
2018-01-10T12:32:56.068Z,7967.00
2018-01-10T12:33:56.488Z,7586.00
2018-01-10T12:35:17.486Z,6818.00
2018-01-10T12:36:40.063Z,6577.00
2018-01-10T12:37:40.718Z,6518.00
2018-01-10T12:39:02.578Z,6358.00
2018-01-10T12:40:24.460Z,5769.00
2018-01-10T12:41:47.267Z,5408.00
2018-01-10T12:42:45.707Z,5511.00
2018-01-10T12:44:29.731Z,5804.00
2018-01-10T12:45:30.412Z,5992.00
2018-01-10T12:47:34.201Z,6003.00
2018-01-10T12:48:34.585Z,6105.00
2018-01-10T12:49:34.062Z,6284.00
2018-01-10T12:50:56.362Z,6408.00
2018-01-10T12:52:19.038Z,6304.00
2018-01-10T12:53:19.206Z,6155.00
2018-01-10T12:54:18.889Z,6001.00
2018-01-10T12:55:19.492Z,5936.00
2018-01-10T12:56:18.856Z,6031.00
2018-01-10T12:57:18.522Z,6268.00
2018-01-10T12:58:18.947Z,6578.00
2018-01-10T12:59:19.834Z,6927.00
2018-01-10T13:00:18.616Z,7265.00
2018-01-10T13:01:39.081Z,7755.00
2018-01-10T13:02:39.353Z,8063.00
2018-01-10T13:03:40.184Z,8105.00
2018-01-10T13:05:00.976Z,7955.00
2018-01-10T13:06:01.662Z,7614.00
2018-01-10T13:07:02.417Z,7198.00